Time;durP1;ratioP1;P1;durP2;ratioP2;P2;SDS_P1;SDS_P2;PMS_P1;PMS_P2;Temp;Humidity;BMP_temperature;BMP_pressure;BME280_temperature;BME280_humidity;BME280_pressure;Samples;Min_cycle;Max_cycle;Signal;HPM_P1;HPM_P2
2022/01/30 00:00:39;;;;;;;8.10;1.73;;;9.40;99.90;;;;;;10526740;28;20040;-65
2022/01/30 00:05:40;;;;;;;15.73;2.20;;;9.30;99.90;;;;;;10513687;28;20147;-65
2022/01/30 00:10:41;;;;;;;7.82;1.70;;;9.30;99.90;;;;;;10530369;28;20215;-65
2022/01/30 00:15:47;;;;;;;10.18;1.70;;;9.30;99.90;;;;;;10502609;28;20035;-65
2022/01/30 00:21:03;;;;;;;6.70;1.58;;;9.30;99.90;;;;;;10529853;28;20086;-65
2022/01/30 00:26:07;;;;;;;6.65;1.42;;;8.40;99.90;;;;;;10524219;28;20028;-62
2022/01/30 00:31:08;;;;;;;8.73;1.80;;;9.20;99.90;;;;;;10528109;28;20069;-64
2022/01/30 00:36:09;;;;;;;8.18;1.33;;;9.20;99.90;;;;;;10528784;28;20371;-65
2022/01/30 00:41:10;;;;;;;6.80;1.55;;;9.20;99.90;;;;;;10529848;28;20028;-65
2022/01/30 00:46:10;;;;;;;8.15;1.58;;;9.20;99.90;;;;;;10530611;28;20085;-63
2022/01/30 00:51:11;;;;;;;11.90;2.20;;;9.20;99.90;;;;;;10528653;28;20032;-65
2022/01/30 00:56:12;;;;;;;7.50;1.73;;;9.10;99.90;;;;;;10528825;28;20047;-65
2022/01/30 01:01:13;;;;;;;8.50;1.95;;;9.10;99.90;;;;;;10518725;28;20520;-64
2022/01/30 01:06:13;;;;;;;6.80;1.30;;;9.10;99.90;;;;;;10524708;28;20064;-63
2022/01/30 01:11:53;;;;;;;5.93;1.52;;;9.10;99.90;;;;;;10529335;28;20052;-64
2022/01/30 01:27:16;;;;;;;7.93;1.38;;;9.20;99.90;;;;;;10519621;28;20050;-64
2022/01/30 01:32:17;;;;;;;8.07;1.45;;;9.10;99.90;;;;;;10527637;28;20046;-65
2022/01/30 01:37:17;;;;;;;3.60;1.05;;;9.10;99.90;;;;;;10526839;28;20063;-64
2022/01/30 01:42:18;;;;;;;6.38;1.05;;;9.10;99.90;;;;;;10527506;28;20454;-65
2022/01/30 01:47:21;;;;;;;8.82;1.60;;;9.10;99.90;;;;;;10527091;28;20111;-64
2022/01/30 01:52:25;;;;;;;8.45;1.40;;;9.10;99.90;;;;;;10526390;28;20078;-65
2022/01/30 01:57:27;;;;;;;8.25;2.35;;;9.00;99.90;;;;;;10530604;28;20040;-65
2022/01/30 02:02:29;;;;;;;8.25;1.27;;;9.00;99.90;;;;;;10513592;28;20028;-65
2022/01/30 02:12:52;;;;;;;7.70;1.05;;;9.00;99.90;;;;;;10527901;28;20035;-64
2022/01/30 02:28:20;;;;;;;4.00;0.85;;;8.90;99.90;;;;;;10530105;28;20043;-63
2022/01/30 02:33:22;;;;;;;4.68;0.98;;;8.90;99.90;;;;;;10522663;28;20031;-65
2022/01/30 02:38:24;;;;;;;3.35;0.88;;;8.90;99.90;;;;;;10529179;28;20036;-65
2022/01/30 02:43:33;;;;;;;7.28;1.35;;;8.90;99.90;;;;;;10534033;28;20020;-65
2022/01/30 02:48:47;;;;;;;8.93;1.10;;;8.90;99.90;;;;;;10533177;28;20032;-64
2022/01/30 02:53:56;;;;;;;6.63;1.15;;;8.90;99.90;;;;;;10531528;28;20048;-65
2022/01/30 02:58:57;;;;;;;4.63;1.20;;;8.90;99.90;;;;;;10525417;28;20040;-65
2022/01/30 03:03:58;;;;;;;4.57;1.02;;;8.90;99.90;;;;;;10526889;28;20073;-65
2022/01/30 03:09:00;;;;;;;7.88;1.85;;;8.90;99.90;;;;;;10523786;28;20072;-65
2022/01/30 03:14:02;;;;;;;5.05;0.80;;;8.90;99.90;;;;;;10521350;28;20032;-65
2022/01/30 03:19:02;;;;;;;6.38;1.20;;;8.80;99.90;;;;;;10528952;28;20109;-67
2022/01/30 03:24:04;;;;;;;6.03;0.82;;;8.80;99.90;;;;;;10514771;28;20074;-64
2022/01/30 03:29:06;;;;;;;6.10;1.38;;;8.80;99.90;;;;;;10517295;28;20039;-65
2022/01/30 03:34:10;;;;;;;4.20;0.90;;;8.80;99.90;;;;;;10531147;28;20020;-65
2022/01/30 03:39:10;;;;;;;5.93;0.95;;;8.90;99.90;;;;;;10512454;28;20028;-64
2022/01/30 03:44:11;;;;;;;4.45;1.88;;;8.80;99.90;;;;;;10525851;28;20021;-65
2022/01/30 03:49:12;;;;;;;5.13;1.15;;;8.80;99.90;;;;;;10526203;28;20443;-64
2022/01/30 03:54:12;;;;;;;8.25;1.48;;;8.80;99.90;;;;;;10530381;28;20121;-65
2022/01/30 03:59:13;;;;;;;8.43;2.17;;;8.80;99.90;;;;;;10532025;28;20028;-63
2022/01/30 04:04:14;;;;;;;6.05;1.05;;;8.90;99.90;;;;;;10506278;28;20471;-65
2022/01/30 04:09:15;;;;;;;8.93;1.48;;;8.70;99.90;;;;;;10513778;28;20452;-65
2022/01/30 04:14:16;;;;;;;5.57;1.40;;;8.70;99.90;;;;;;10527936;28;20035;-64
2022/01/30 04:19:17;;;;;;;5.70;1.30;;;8.80;99.90;;;;;;10524774;28;20675;-65
2022/01/30 04:24:17;;;;;;;8.65;1.42;;;8.70;99.90;;;;;;10507597;28;20023;-65
2022/01/30 04:29:18;;;;;;;9.85;1.42;;;8.70;99.90;;;;;;10516067;28;20447;-65
2022/01/30 04:34:20;;;;;;;8.35;1.23;;;8.70;99.90;;;;;;10520629;28;20070;-64
2022/01/30 05:00:58;;;;;;;8.60;1.85;;;8.70;99.90;;;;;;10518195;28;20054;-65
2022/01/30 05:11:06;;;;;;;9.50;1.58;;;8.60;99.90;;;;;;10529704;28;20028;-65
2022/01/30 05:16:07;;;;;;;11.52;2.65;;;8.60;99.90;;;;;;10519971;28;20028;-65
2022/01/30 05:21:08;;;;;;;8.40;1.65;;;8.60;99.90;;;;;;10513051;28;20075;-65
2022/01/30 05:26:09;;;;;;;8.45;2.13;;;8.60;99.90;;;;;;10524403;28;20028;-64
2022/01/30 05:31:11;;;;;;;6.38;1.73;;;8.60;99.90;;;;;;10520020;28;20423;-65
2022/01/30 05:36:12;;;;;;;10.05;2.33;;;8.60;99.90;;;;;;10527561;28;20110;-65
2022/01/30 05:41:13;;;;;;;9.68;1.88;;;8.50;99.90;;;;;;10527180;28;20037;-64
2022/01/30 05:46:27;;;;;;;8.00;1.90;;;8.50;99.90;;;;;;10532256;28;20080;-63
2022/01/30 05:51:28;;;;;;;9.18;2.00;;;8.50;99.90;;;;;;10521580;28;20050;-65
2022/01/30 05:56:29;;;;;;;12.57;2.33;;;8.50;99.90;;;;;;10535339;28;20539;-62
2022/01/30 06:01:30;;;;;;;10.93;2.15;;;8.50;99.90;;;;;;10525177;28;20482;-65
2022/01/30 06:06:31;;;;;;;7.88;1.40;;;8.50;99.90;;;;;;10531618;28;20028;-65
2022/01/30 06:11:31;;;;;;;9.38;1.55;;;8.50;99.90;;;;;;10535805;28;20020;-64
2022/01/30 06:16:32;;;;;;;12.02;2.80;;;8.50;99.90;;;;;;10534123;28;20382;-64
2022/01/30 06:21:33;;;;;;;17.33;2.63;;;8.40;99.90;;;;;;10528481;28;20089;-65
2022/01/30 06:26:34;;;;;;;11.18;2.22;;;8.50;99.90;;;;;;10531076;28;20466;-64
2022/01/30 06:31:34;;;;;;;9.63;2.13;;;8.40;99.90;;;;;;10532932;28;20040;-65
2022/01/30 06:36:35;;;;;;;13.35;2.38;;;8.40;99.90;;;;;;10533667;28;20125;-65
2022/01/30 06:41:36;;;;;;;9.73;1.77;;;8.40;99.90;;;;;;10533354;28;20043;-64
2022/01/30 06:46:36;;;;;;;11.63;2.10;;;8.40;99.90;;;;;;10531687;28;20036;-65
2022/01/30 06:51:37;;;;;;;10.30;2.47;;;8.40;99.90;;;;;;10532893;28;20105;-65
2022/01/30 06:56:38;;;;;;;9.98;1.98;;;8.40;99.90;;;;;;10532140;28;20048;-63
2022/01/30 07:01:39;;;;;;;14.77;2.63;;;8.40;99.90;;;;;;10522873;28;20020;-61
2022/01/30 07:06:39;;;;;;;9.18;2.80;;;8.40;99.90;;;;;;10535322;28;20026;-64
2022/01/30 07:11:40;;;;;;;14.80;3.60;;;8.70;99.90;;;;;;10525931;28;20036;-63
2022/01/30 07:16:40;;;;;;;15.75;2.42;;;8.40;99.90;;;;;;10524562;28;20115;-64
2022/01/30 07:21:41;;;;;;;13.65;3.65;;;8.40;99.90;;;;;;10524301;28;20047;-64
2022/01/30 07:26:42;;;;;;;12.35;2.22;;;8.40;99.90;;;;;;10528226;28;20040;-64
2022/01/30 07:31:43;;;;;;;13.82;2.35;;;8.30;99.90;;;;;;10531110;28;20036;-65
2022/01/30 07:36:43;;;;;;;13.23;2.80;;;8.30;99.90;;;;;;10518169;28;20028;-63
2022/01/30 07:41:44;;;;;;;5.85;1.80;;;8.40;99.90;;;;;;10534517;28;20073;-65
2022/01/30 07:46:45;;;;;;;14.27;2.50;;;8.50;99.90;;;;;;10532813;28;20439;-62
2022/01/30 07:51:46;;;;;;;13.93;2.38;;;8.40;99.90;;;;;;10538275;28;20077;-63
2022/01/30 07:56:47;;;;;;;18.98;2.63;;;8.60;99.90;;;;;;10516892;28;20109;-65
2022/01/30 08:01:47;;;;;;;10.60;2.22;;;8.40;99.80;;;;;;10511359;28;20033;-65
2022/01/30 08:06:48;;;;;;;12.15;2.42;;;8.40;99.80;;;;;;10500069;28;20044;-67
2022/01/30 08:11:49;;;;;;;12.55;2.47;;;8.40;99.80;;;;;;10522486;28;20393;-63
2022/01/30 08:16:49;;;;;;;14.43;2.60;;;8.40;99.80;;;;;;10501800;28;20052;-63
2022/01/30 08:21:50;;;;;;;10.75;3.10;;;8.40;99.70;;;;;;10504784;28;20059;-63
2022/01/30 08:26:51;;;;;;;14.02;2.42;;;8.50;99.80;;;;;;10521259;28;20089;-64
2022/01/30 08:31:52;;;;;;;7.13;2.45;;;8.50;99.80;;;;;;10519013;28;20032;-65
2022/01/30 08:36:53;;;;;;;12.10;2.25;;;8.50;99.70;;;;;;10521365;28;20123;-64
2022/01/30 08:41:53;;;;;;;14.60;2.25;;;8.50;99.70;;;;;;10530089;28;20020;-63
2022/01/30 08:46:54;;;;;;;13.48;2.20;;;8.50;99.70;;;;;;10511183;28;20094;-63
2022/01/30 08:51:55;;;;;;;12.15;2.60;;;8.50;99.70;;;;;;10518678;28;20028;-63
2022/01/30 08:56:56;;;;;;;8.68;2.08;;;8.60;99.70;;;;;;10528172;28;20092;-64
2022/01/30 09:01:56;;;;;;;14.85;2.78;;;8.50;99.60;;;;;;10522207;28;20043;-63
2022/01/30 09:06:57;;;;;;;19.90;3.33;;;8.50;99.60;;;;;;10523844;28;20071;-63
2022/01/30 09:11:58;;;;;;;10.60;2.33;;;8.60;99.60;;;;;;10528719;28;20452;-64
2022/01/30 09:16:58;;;;;;;15.73;2.60;;;8.50;99.60;;;;;;10519925;28;20158;-63
2022/01/30 09:21:59;;;;;;;16.63;2.80;;;8.60;99.60;;;;;;10517105;28;20024;-62
2022/01/30 09:27:00;;;;;;;10.93;2.35;;;8.60;99.50;;;;;;10527060;28;20088;-63
2022/01/30 09:32:02;;;;;;;16.33;3.72;;;8.70;99.40;;;;;;10535609;28;20051;-64
2022/01/30 09:37:04;;;;;;;16.30;2.88;;;8.70;99.30;;;;;;10522113;28;20040;-62
2022/01/30 09:42:06;;;;;;;12.13;2.58;;;8.80;99.20;;;;;;10527733;28;20016;-62
2022/01/30 09:47:16;;;;;;;9.25;1.65;;;8.80;99.20;;;;;;10524212;28;20024;-63
2022/01/30 09:52:18;;;;;;;11.93;2.97;;;9.00;99.10;;;;;;10528174;28;20024;-61
2022/01/30 09:57:19;;;;;;;15.13;2.55;;;9.00;99.10;;;;;;10529407;28;20036;-61
2022/01/30 10:02:20;;;;;;;13.48;2.13;;;9.00;99.00;;;;;;10505308;28;20029;-62
2022/01/30 10:07:25;;;;;;;13.38;2.50;;;9.10;98.90;;;;;;10517778;28;20044;-64
2022/01/30 10:12:28;;;;;;;15.93;2.60;;;9.20;98.90;;;;;;10513299;28;20105;-62
2022/01/30 10:17:35;;;;;;;13.05;2.75;;;9.30;98.80;;;;;;10532881;28;20063;-63
2022/01/30 10:22:48;;;;;;;18.15;2.90;;;9.30;98.70;;;;;;10533284;28;20028;-63
2022/01/30 10:28:04;;;;;;;10.80;2.10;;;9.40;98.60;;;;;;10507902;28;20038;-63
2022/01/30 10:33:05;;;;;;;10.30;2.40;;;9.50;98.50;;;;;;10522143;28;20028;-64
2022/01/30 10:38:18;;;;;;;14.48;2.30;;;9.60;98.50;;;;;;10518024;28;20029;-63
2022/01/30 10:43:18;;;;;;;13.40;2.40;;;9.50;98.50;;;;;;10534170;28;20580;-62
2022/01/30 10:48:23;;;;;;;16.70;2.60;;;9.40;98.60;;;;;;10517658;28;20043;-61
2022/01/30 10:53:26;;;;;;;13.02;2.60;;;9.40;98.70;;;;;;10530550;28;20097;-61
2022/01/30 10:58:26;;;;;;;14.52;2.90;;;9.40;98.70;;;;;;10518441;28;20032;-62
2022/01/30 11:03:51;;;;;;;12.18;2.38;;;9.50;98.80;;;;;;10516222;28;20039;-63
2022/01/30 11:08:53;;;;;;;12.20;2.40;;;9.50;98.60;;;;;;10530865;28;20032;-62
2022/01/30 11:19:09;;;;;;;12.00;3.03;;;9.70;98.60;;;;;;10497814;28;20399;-62
2022/01/30 11:24:13;;;;;;;11.05;2.40;;;9.80;98.50;;;;;;10514642;28;20528;-63
2022/01/30 11:29:17;;;;;;;13.13;2.28;;;9.80;98.40;;;;;;10529576;28;20036;-63
2022/01/30 11:34:18;;;;;;;11.52;2.15;;;10.10;98.40;;;;;;10528910;28;20070;-62
2022/01/30 11:39:20;;;;;;;10.13;2.15;;;10.00;98.30;;;;;;10516044;28;20542;-63
2022/01/30 11:44:22;;;;;;;12.00;2.13;;;10.00;98.60;;;;;;10530049;28;20032;-63
2022/01/30 11:49:36;;;;;;;11.32;2.28;;;10.00;98.30;;;;;;10515957;28;20067;-63
2022/01/30 11:54:38;;;;;;;16.98;2.58;;;10.00;98.40;;;;;;10529489;28;20047;-61
2022/01/30 11:59:40;;;;;;;13.02;2.53;;;9.90;98.50;;;;;;10517873;28;20455;-61
2022/01/30 12:04:59;;;;;;;16.67;2.42;;;10.00;98.50;;;;;;10519457;28;20021;-63
2022/01/30 12:10:16;;;;;;;10.43;2.33;;;10.00;98.40;;;;;;10479796;28;20403;-63
2022/01/30 12:15:35;;;;;;;12.48;2.38;;;10.00;98.50;;;;;;10479628;28;20127;-64
2022/01/30 12:20:59;;;;;;;10.40;1.92;;;10.00;98.40;;;;;;10479588;28;20429;-64
2022/01/30 12:26:05;;;;;;;9.82;2.10;;;10.00;98.30;;;;;;10478788;28;20043;-62
2022/01/30 12:31:35;;;;;;;13.48;2.63;;;10.00;98.50;;;;;;10476720;28;20498;-64
2022/01/30 12:36:39;;;;;;;12.00;2.60;;;10.10;98.40;;;;;;10478452;28;20036;-65
2022/01/30 12:41:41;;;;;;;12.98;2.20;;;10.00;98.40;;;;;;10478436;28;20131;-64
2022/01/30 12:46:46;;;;;;;17.30;3.00;;;10.10;98.50;;;;;;10481802;28;20456;-61
2022/01/30 12:51:55;;;;;;;15.98;3.05;;;10.00;98.40;;;;;;10478669;28;20025;-65
2022/01/30 12:56:56;;;;;;;16.05;3.03;;;10.10;98.30;;;;;;10476221;28;20033;-64
2022/01/30 13:02:12;;;;;;;22.98;4.32;;;10.10;98.40;;;;;;10476367;28;20120;-64
2022/01/30 13:07:14;;;;;;;18.27;2.67;;;10.40;98.10;;;;;;10480084;28;20133;-63
2022/01/30 13:12:16;;;;;;;133.00;10.15;;;10.30;98.20;;;;;;10478625;28;20016;-62
2022/01/30 13:17:17;;;;;;;69.15;6.32;;;10.30;98.20;;;;;;10471769;28;20021;-62
2022/01/30 13:22:29;;;;;;;88.55;7.28;;;10.30;98.20;;;;;;10447140;28;20383;-62
2022/01/30 13:27:30;;;;;;;43.00;4.88;;;10.20;98.10;;;;;;10451051;28;20395;-64
2022/01/30 13:32:31;;;;;;;41.08;4.80;;;10.20;98.30;;;;;;10449064;28;20207;-61
2022/01/30 13:37:37;;;;;;;35.53;4.40;;;10.20;98.30;;;;;;10449254;28;20108;-62
2022/01/30 13:42:55;;;;;;;37.85;4.32;;;10.40;98.40;;;;;;10450075;28;20024;-60
2022/01/30 13:48:15;;;;;;;33.80;5.37;;;10.10;98.10;;;;;;10451475;28;20043;-60
2022/01/30 13:53:18;;;;;;;23.88;3.33;;;10.10;98.00;;;;;;10444241;28;20077;-60
2022/01/30 13:58:21;;;;;;;21.58;3.55;;;10.10;98.00;;;;;;10448124;28;20186;-59
2022/01/30 14:03:26;;;;;;;21.25;3.75;;;10.20;98.00;;;;;;10444857;28;20031;-60
2022/01/30 14:08:28;;;;;;;13.52;3.03;;;10.20;98.00;;;;;;10444577;28;20183;-61
2022/01/30 14:13:36;;;;;;;19.05;3.38;;;10.20;98.00;;;;;;10435827;28;20030;-60
2022/01/30 14:18:57;;;;;;;26.95;3.78;;;10.20;97.90;;;;;;10413690;28;20030;-63
2022/01/30 14:23:58;;;;;;;17.00;3.28;;;10.10;97.50;;;;;;10413342;28;20030;-61
2022/01/30 14:29:21;;;;;;;17.73;2.85;;;10.20;97.80;;;;;;10414731;28;20391;-61
2022/01/30 14:34:24;;;;;;;18.33;3.70;;;10.20;97.50;;;;;;10413026;28;20021;-62
2022/01/30 14:39:28;;;;;;;15.65;2.53;;;10.20;97.80;;;;;;10410592;28;20585;-61
2022/01/30 14:44:29;;;;;;;17.63;3.28;;;10.20;97.80;;;;;;10416229;28;20069;-62
2022/01/30 14:49:30;;;;;;;16.85;2.45;;;10.10;97.80;;;;;;10418606;28;20565;-62
2022/01/30 14:54:31;;;;;;;19.08;2.78;;;10.10;97.90;;;;;;10409115;28;20029;-64
2022/01/30 14:59:32;;;;;;;13.25;2.45;;;10.10;97.90;;;;;;10420196;28;20029;-63
2022/01/30 15:04:34;;;;;;;21.67;3.65;;;10.10;97.90;;;;;;10421286;28;20043;-64
2022/01/30 15:09:35;;;;;;;15.20;2.63;;;10.10;98.00;;;;;;10423940;28;20128;-65
2022/01/30 15:14:38;;;;;;;16.83;2.85;;;10.00;98.00;;;;;;10439115;28;20017;-62
2022/01/30 15:19:38;;;;;;;22.88;3.20;;;10.00;98.00;;;;;;10426266;28;20108;-65
2022/01/30 15:24:40;;;;;;;18.58;2.88;;;9.90;98.00;;;;;;10409601;28;20061;-62
2022/01/30 15:29:41;;;;;;;18.33;3.03;;;9.90;98.10;;;;;;10428086;28;20041;-64
2022/01/30 15:34:42;;;;;;;28.33;4.30;;;9.80;97.80;;;;;;10442612;28;20021;-64
2022/01/30 15:39:42;;;;;;;16.77;3.65;;;9.40;97.30;;;;;;10443270;28;20544;-64
2022/01/30 15:49:50;;;;;;;18.58;4.03;;;8.70;97.20;;;;;;10442608;28;20049;-64
2022/01/30 15:54:51;;;;;;;24.95;4.18;;;8.50;97.30;;;;;;10445030;28;20040;-64
2022/01/30 15:59:52;;;;;;;28.17;4.75;;;8.30;97.20;;;;;;10445052;28;20048;-64
2022/01/30 16:04:54;;;;;;;20.70;4.55;;;8.30;97.10;;;;;;10437245;28;20018;-63
2022/01/30 16:10:03;;;;;;;19.65;3.88;;;8.40;97.00;;;;;;10428061;28;20049;-60
2022/01/30 16:20:26;;;;;;;18.98;3.45;;;8.60;97.00;;;;;;10421755;28;20036;-64
2022/01/30 16:25:27;;;;;;;10.20;2.92;;;8.70;97.00;;;;;;10434879;28;20451;-68
2022/01/30 16:30:28;;;;;;;22.02;3.72;;;8.80;97.00;;;;;;10432615;28;20124;-65
2022/01/30 16:35:31;;;;;;;23.70;3.72;;;8.80;96.90;;;;;;10408839;28;20028;-67
2022/01/30 16:40:32;;;;;;;21.33;4.28;;;8.90;96.90;;;;;;10439861;28;20021;-61
2022/01/30 16:45:38;;;;;;;14.38;3.25;;;8.90;97.00;;;;;;10443514;28;20035;-63
2022/01/30 16:50:38;;;;;;;12.25;2.60;;;8.90;97.10;;;;;;10429013;28;20026;-65
2022/01/30 16:55:43;;;;;;;16.25;3.10;;;8.90;97.20;;;;;;10441999;28;20033;-61
2022/01/30 17:00:43;;;;;;;22.85;3.13;;;9.00;97.20;;;;;;10438288;28;20025;-62
2022/01/30 17:05:44;;;;;;;15.88;3.03;;;9.00;97.20;;;;;;10442241;28;20041;-62
2022/01/30 17:10:48;;;;;;;16.23;2.72;;;9.00;97.30;;;;;;10428267;28;20041;-60
2022/01/30 17:15:51;;;;;;;15.98;3.70;;;9.00;97.30;;;;;;10427369;28;20041;-65
2022/01/30 17:20:52;;;;;;;15.50;3.35;;;9.00;97.40;;;;;;10448690;28;20167;-62
2022/01/30 17:25:54;;;;;;;11.00;2.65;;;9.00;97.40;;;;;;10449088;28;20043;-64
2022/01/30 17:30:55;;;;;;;13.02;3.08;;;9.00;97.50;;;;;;10435470;28;20399;-66
2022/01/30 17:35:56;;;;;;;17.92;3.33;;;8.90;97.40;;;;;;10419700;28;20035;-70
2022/01/30 17:40:57;;;;;;;16.77;2.65;;;8.90;97.40;;;;;;10447331;28;21683;-67
2022/01/30 17:45:58;;;;;;;12.07;3.15;;;8.90;97.50;;;;;;10425564;28;20041;-68
2022/01/30 17:50:58;;;;;;;13.15;2.85;;;8.90;97.50;;;;;;10436651;28;20127;-64
2022/01/30 17:55:59;;;;;;;16.10;3.95;;;8.90;97.80;;;;;;10455933;28;20047;-63
2022/01/30 18:01:00;;;;;;;24.00;4.90;;;8.90;97.40;;;;;;10449950;28;20025;-64
2022/01/30 18:06:03;;;;;;;17.90;4.97;;;8.90;97.30;;;;;;10439572;28;20131;-67
2022/01/30 18:11:04;;;;;;;19.48;4.03;;;8.80;97.30;;;;;;10448819;28;20049;-67
2022/01/30 18:16:05;;;;;;;19.23;4.68;;;8.80;97.30;;;;;;10446273;28;20119;-65
2022/01/30 18:21:05;;;;;;;14.13;3.72;;;8.80;97.30;;;;;;10446891;28;20037;-61
2022/01/30 18:26:07;;;;;;;17.42;3.90;;;8.80;97.30;;;;;;10445215;28;20068;-61
2022/01/30 18:31:07;;;;;;;22.98;4.10;;;8.70;97.30;;;;;;10445633;28;20422;-62
2022/01/30 18:36:14;;;;;;;16.77;3.95;;;8.80;97.30;;;;;;10446911;28;20079;-62
2022/01/30 18:41:15;;;;;;;19.75;3.97;;;8.70;97.30;;;;;;10448314;28;20032;-59
2022/01/30 18:46:16;;;;;;;18.70;4.10;;;8.70;97.30;;;;;;10448221;28;20037;-63
2022/01/30 18:51:17;;;;;;;15.88;3.63;;;8.70;97.30;;;;;;10447466;28;20021;-69
2022/01/30 18:56:17;;;;;;;15.10;3.67;;;8.70;97.30;;;;;;10428287;28;20396;-61
2022/01/30 19:01:18;;;;;;;20.63;4.03;;;8.70;97.30;;;;;;10419000;28;20885;-64
2022/01/30 19:06:19;;;;;;;13.57;2.92;;;8.70;97.30;;;;;;10426565;28;20048;-61
2022/01/30 19:11:20;;;;;;;16.95;2.95;;;8.60;97.30;;;;;;10430050;28;20074;-60
2022/01/30 19:16:21;;;;;;;11.63;3.10;;;8.60;97.30;;;;;;10437378;28;20052;-61
2022/01/30 19:21:22;;;;;;;15.20;3.22;;;8.70;97.30;;;;;;10426958;28;20025;-65
2022/01/30 19:26:26;;;;;;;17.35;3.25;;;8.60;97.30;;;;;;10412421;28;20103;-62
2022/01/30 19:31:27;;;;;;;12.63;3.20;;;8.60;97.30;;;;;;10420980;28;20102;-64
2022/01/30 19:36:28;;;;;;;12.32;2.70;;;8.60;97.30;;;;;;10421952;28;20028;-62
2022/01/30 19:41:30;;;;;;;15.75;3.60;;;8.60;97.30;;;;;;10421178;28;20132;-61
2022/01/30 19:46:31;;;;;;;13.32;3.15;;;8.50;97.30;;;;;;10431978;28;20102;-61
2022/01/30 19:51:32;;;;;;;12.85;2.75;;;8.50;97.30;;;;;;10420376;28;20041;-66
2022/01/30 19:56:33;;;;;;;12.52;3.75;;;8.90;97.40;;;;;;10415397;28;20090;-62
2022/01/30 20:01:34;;;;;;;18.95;3.45;;;8.50;97.20;;;;;;10434256;28;20076;-69
2022/01/30 20:06:35;;;;;;;11.48;3.00;;;8.50;97.20;;;;;;10438457;28;20131;-61
2022/01/30 20:11:36;;;;;;;8.05;2.60;;;8.50;97.20;;;;;;10434323;28;20049;-63
2022/01/30 20:16:38;;;;;;;11.75;2.35;;;8.50;97.20;;;;;;10430418;28;20120;-69
2022/01/30 20:21:38;;;;;;;9.60;2.70;;;8.50;97.20;;;;;;10450035;28;20025;-67
2022/01/30 20:26:40;;;;;;;10.98;2.60;;;8.40;97.20;;;;;;10429327;28;20478;-62
2022/01/30 20:31:40;;;;;;;15.73;2.75;;;8.40;97.20;;;;;;10442713;28;20030;-68
2022/01/30 20:36:41;;;;;;;16.02;2.80;;;8.40;97.20;;;;;;10433237;28;20021;-68
2022/01/30 20:41:43;;;;;;;10.18;2.58;;;8.40;97.20;;;;;;10438417;28;20437;-68
2022/01/30 20:46:44;;;;;;;8.93;2.65;;;8.40;97.20;;;;;;10442285;28;20376;-64
2022/01/30 20:51:45;;;;;;;15.45;3.15;;;8.40;97.20;;;;;;10429134;28;20025;-67
2022/01/30 20:56:45;;;;;;;17.42;3.45;;;8.40;97.10;;;;;;10430082;28;20021;-67
2022/01/30 21:01:46;;;;;;;11.55;3.35;;;8.40;97.20;;;;;;10434221;28;20086;-64
2022/01/30 21:06:48;;;;;;;14.18;3.50;;;8.30;97.10;;;;;;10423554;28;20049;-66
2022/01/30 21:11:51;;;;;;;12.75;3.05;;;8.30;97.10;;;;;;10427084;28;20028;-66
2022/01/30 21:16:51;;;;;;;17.02;3.53;;;8.30;97.10;;;;;;10453126;28;20483;-66
2022/01/30 21:21:52;;;;;;;14.98;3.38;;;8.30;97.10;;;;;;10448532;28;20029;-65
2022/01/30 21:26:54;;;;;;;9.65;2.80;;;8.50;97.20;;;;;;10465424;28;20040;-65
2022/01/30 21:31:55;;;;;;;11.93;2.70;;;8.30;97.10;;;;;;10448599;28;20443;-66
2022/01/30 21:36:55;;;;;;;15.65;3.80;;;8.20;97.10;;;;;;10431339;28;20039;-67
2022/01/30 21:41:56;;;;;;;15.57;3.25;;;8.30;97.10;;;;;;10446839;28;20036;-66
2022/01/30 21:46:57;;;;;;;10.75;2.80;;;8.30;97.10;;;;;;10457101;28;20097;-67
2022/01/30 21:51:58;;;;;;;11.35;3.40;;;8.20;97.00;;;;;;10450333;28;20067;-68
2022/01/30 21:57:00;;;;;;;13.23;3.22;;;8.20;97.00;;;;;;10449894;28;20455;-63
2022/01/30 22:02:01;;;;;;;14.30;3.97;;;8.20;97.00;;;;;;10427222;28;20022;-67
2022/01/30 22:07:02;;;;;;;17.08;3.35;;;8.20;97.00;;;;;;10421262;28;20767;-68
2022/01/30 22:12:12;;;;;;;11.65;3.33;;;8.20;97.00;;;;;;10418156;28;20047;-66
2022/01/30 22:17:13;;;;;;;11.55;2.90;;;8.20;97.00;;;;;;10420725;28;20025;-70
2022/01/30 22:22:14;;;;;;;14.10;3.00;;;8.20;96.90;;;;;;10427166;28;20033;-65
2022/01/30 22:27:14;;;;;;;8.93;3.65;;;8.10;96.90;;;;;;10420302;28;20570;-66
2022/01/30 22:32:18;;;;;;;12.13;3.53;;;8.30;97.00;;;;;;10454907;28;20369;-62
2022/01/30 22:37:19;;;;;;;14.48;3.47;;;8.10;96.90;;;;;;10432534;28;20044;-62
2022/01/30 22:42:20;;;;;;;14.65;3.40;;;8.10;96.90;;;;;;10442001;28;20017;-65
2022/01/30 22:47:21;;;;;;;9.82;2.80;;;8.10;96.90;;;;;;10446184;28;20482;-62
2022/01/30 22:52:21;;;;;;;11.32;2.75;;;8.00;96.90;;;;;;10444725;28;20078;-61
2022/01/30 22:57:23;;;;;;;9.07;3.05;;;8.00;96.90;;;;;;10439930;28;20024;-62
2022/01/30 23:02:25;;;;;;;16.27;2.70;;;8.00;96.90;;;;;;10445566;28;20055;-64
2022/01/30 23:07:27;;;;;;;13.27;2.88;;;8.00;96.90;;;;;;10450658;28;20061;-68
2022/01/30 23:12:28;;;;;;;11.57;2.83;;;8.00;96.90;;;;;;10445232;28;20017;-68
2022/01/30 23:17:28;;;;;;;11.45;3.00;;;8.00;96.90;;;;;;10437483;28;20024;-67
2022/01/30 23:22:30;;;;;;;10.77;2.60;;;8.00;96.90;;;;;;10439461;28;20032;-67
2022/01/30 23:27:36;;;;;;;14.23;3.45;;;8.00;96.90;;;;;;10442038;28;20647;-66
2022/01/30 23:32:36;;;;;;;8.55;2.50;;;7.90;96.90;;;;;;10444074;28;20168;-69
2022/01/30 23:37:38;;;;;;;13.07;3.00;;;8.00;96.90;;;;;;10444442;28;20020;-65
2022/01/30 23:42:42;;;;;;;11.38;2.80;;;7.90;96.90;;;;;;10444060;28;20120;-68
2022/01/30 23:47:45;;;;;;;14.75;3.15;;;7.90;96.90;;;;;;10442971;28;20069;-66
2022/01/30 23:52:47;;;;;;;12.75;2.83;;;7.90;96.90;;;;;;10443765;28;20079;-69
2022/01/30 23:57:47;;;;;;;10.05;2.75;;;7.90;96.90;;;;;;10442451;28;20538;-66
